Time;durP1;ratioP1;P1;durP2;ratioP2;P2;SDS_P1;SDS_P2;PMS_P1;PMS_P2;Temp;Humidity;BMP_temperature;BMP_pressure;BME280_temperature;BME280_humidity;BME280_pressure;Samples;Min_cycle;Max_cycle;Signal;HPM_P1;HPM_P2
2022/08/12 00:44:59;;;;;;;4.53;4.00;;;19.60;99.90;;;;;;5044385;28;20711;-78
2022/08/12 00:47:25;;;;;;;7.05;3.83;;;19.50;99.90;;;;;;5042909;28;20071;-75
2022/08/12 00:49:52;;;;;;;5.00;3.72;;;19.40;99.90;;;;;;5034195;28;20052;-77
2022/08/12 00:52:19;;;;;;;5.75;3.75;;;19.40;99.90;;;;;;5034974;28;20034;-76
2022/08/12 00:54:51;;;;;;;7.22;4.07;;;19.30;99.90;;;;;;5025252;28;20116;-76
2022/08/12 00:57:19;;;;;;;6.05;3.83;;;19.30;99.90;;;;;;5037107;28;20043;-76
2022/08/12 01:00:09;;;;;;;5.35;4.10;;;19.20;99.90;;;;;;5033579;28;20060;-77
2022/08/12 01:02:38;;;;;;;4.95;4.05;;;19.20;99.90;;;;;;5040641;28;20230;-78
2022/08/12 01:13:28;;;;;;;6.47;4.50;;;19.20;99.90;;;;;;5044671;28;20049;-76
2022/08/12 01:16:04;;;;;;;6.55;4.38;;;19.20;99.90;;;;;;5043234;28;20116;-76
2022/08/12 01:18:32;;;;;;;5.35;4.72;;;19.20;99.90;;;;;;5032580;28;20499;-76
2022/08/12 01:21:16;;;;;;;6.03;4.97;;;19.10;99.90;;;;;;5040807;28;20037;-77
2022/08/12 01:24:03;;;;;;;6.35;4.13;;;19.10;99.90;;;;;;5035352;28;20110;-76
2022/08/12 01:26:31;;;;;;;6.00;4.57;;;19.10;99.90;;;;;;5041277;28;20037;-76
2022/08/12 01:28:58;;;;;;;4.90;4.20;;;19.10;99.90;;;;;;5036810;28;20033;-77
2022/08/12 01:31:26;;;;;;;5.57;4.45;;;19.00;99.90;;;;;;5043466;28;20125;-76
2022/08/12 01:34:11;;;;;;;5.25;4.45;;;19.00;99.90;;;;;;5040784;28;20049;-78
2022/08/12 01:36:45;;;;;;;5.75;4.82;;;19.00;99.90;;;;;;5031248;28;20076;-77
2022/08/12 01:39:15;;;;;;;6.22;4.70;;;19.00;99.90;;;;;;5035952;28;20041;-76
2022/08/12 01:41:46;;;;;;;7.03;4.70;;;18.90;99.90;;;;;;5038810;28;20037;-77
2022/08/12 01:44:13;;;;;;;8.20;4.85;;;18.90;99.90;;;;;;5033798;28;20042;-77
2022/08/12 01:46:57;;;;;;;6.55;4.57;;;18.90;99.90;;;;;;5043838;28;20723;-76
2022/08/12 01:49:39;;;;;;;6.43;5.10;;;19.00;99.90;;;;;;5032846;28;20049;-76
2022/08/12 01:52:11;;;;;;;4.75;4.32;;;18.90;99.90;;;;;;5041133;28;20036;-76
2022/08/12 01:54:43;;;;;;;5.45;4.60;;;18.90;99.90;;;;;;5049244;28;20033;-76
2022/08/12 01:57:20;;;;;;;6.63;4.90;;;18.80;99.90;;;;;;5038003;28;20038;-77
2022/08/12 01:59:58;;;;;;;5.90;4.70;;;18.80;99.90;;;;;;5038772;28;20060;-76
2022/08/12 02:02:43;;;;;;;5.75;4.80;;;18.80;99.90;;;;;;5031966;28;20041;-76
2022/08/12 02:11:25;;;;;;;6.25;5.32;;;18.70;99.90;;;;;;5036814;28;20053;-76
2022/08/12 02:14:15;;;;;;;7.70;4.93;;;18.60;99.90;;;;;;5038773;28;20041;-76
2022/08/12 02:16:41;;;;;;;6.40;5.13;;;18.70;99.90;;;;;;5031650;28;20123;-77
2022/08/12 02:19:33;;;;;;;6.40;5.40;;;18.60;99.90;;;;;;5040087;28;20049;-76
2022/08/12 02:22:20;;;;;;;6.95;5.05;;;18.60;99.90;;;;;;5024126;28;20409;-76
2022/08/12 02:24:49;;;;;;;8.82;5.55;;;18.60;99.90;;;;;;5040664;28;20048;-76
2022/08/12 02:27:18;;;;;;;5.90;5.18;;;18.60;99.90;;;;;;5041753;28;20033;-76
2022/08/12 02:29:44;;;;;;;6.53;5.18;;;18.50;99.90;;;;;;5040876;28;20082;-78
2022/08/12 02:32:10;;;;;;;8.43;6.20;;;18.50;99.90;;;;;;5031066;28;20104;-77
2022/08/12 02:34:36;;;;;;;7.25;5.85;;;18.50;99.90;;;;;;5039586;28;20037;-76
2022/08/12 02:37:03;;;;;;;6.72;4.88;;;18.50;99.90;;;;;;5031425;28;20042;-76
2022/08/12 02:39:32;;;;;;;6.25;5.20;;;18.50;99.90;;;;;;5040745;28;20095;-77
2022/08/12 02:42:01;;;;;;;7.75;5.65;;;18.50;99.90;;;;;;5041681;28;20568;-76
2022/08/12 02:44:34;;;;;;;6.80;5.35;;;18.50;99.90;;;;;;5034277;28;20470;-77
2022/08/12 02:47:05;;;;;;;9.10;5.85;;;18.40;99.90;;;;;;5036329;28;20052;-76
2022/08/12 02:49:51;;;;;;;9.10;5.90;;;18.40;99.90;;;;;;5033920;28;20121;-77
2022/08/12 02:52:19;;;;;;;6.57;5.82;;;18.40;99.90;;;;;;5032026;28;20068;-76
2022/08/12 02:54:50;;;;;;;6.88;5.90;;;18.30;99.90;;;;;;5036189;28;20429;-76
2022/08/12 02:57:18;;;;;;;8.98;5.60;;;18.30;99.90;;;;;;5041892;28;20491;-76
2022/08/12 02:59:47;;;;;;;6.28;5.60;;;18.30;99.90;;;;;;5036196;28;20072;-76
2022/08/12 03:02:18;;;;;;;8.18;5.93;;;18.30;99.90;;;;;;5040939;28;20077;-77
2022/08/12 03:04:55;;;;;;;7.15;6.30;;;18.20;99.90;;;;;;5045415;28;20087;-77
2022/08/12 03:07:29;;;;;;;9.27;6.13;;;18.20;99.90;;;;;;5045755;28;20087;-76
2022/08/12 03:10:08;;;;;;;7.40;6.20;;;18.20;99.90;;;;;;5038980;28;20041;-76
2022/08/12 03:12:37;;;;;;;7.85;5.95;;;18.20;99.90;;;;;;5040375;28;20033;-76
2022/08/12 03:15:11;;;;;;;8.60;6.05;;;18.20;99.90;;;;;;5035801;28;20053;-77
2022/08/12 03:17:42;;;;;;;8.23;5.72;;;18.20;99.90;;;;;;5046813;28;20029;-77
2022/08/12 03:20:10;;;;;;;8.80;6.22;;;18.20;99.90;;;;;;5045637;28;20045;-76
2022/08/12 03:22:40;;;;;;;7.60;5.80;;;18.10;99.90;;;;;;5036435;28;20124;-76
2022/08/12 03:25:14;;;;;;;9.13;6.05;;;18.10;99.90;;;;;;5032674;28;20475;-77
2022/08/12 03:27:50;;;;;;;8.25;6.22;;;18.10;99.90;;;;;;5043472;28;20037;-77
2022/08/12 03:30:19;;;;;;;7.53;6.13;;;18.10;99.90;;;;;;5043783;28;20160;-76
2022/08/12 03:32:47;;;;;;;7.10;6.25;;;18.10;99.90;;;;;;5041949;28;20082;-76
2022/08/12 03:35:17;;;;;;;8.15;6.40;;;18.10;99.90;;;;;;5019867;28;20076;-77
2022/08/12 03:37:44;;;;;;;8.65;5.90;;;18.10;99.90;;;;;;5045627;28;20040;-76
2022/08/12 03:41:32;;;;;;;7.57;6.22;;;18.00;99.90;;;;;;5039456;28;20042;-77
2022/08/12 04:02:19;;;;;;;15.32;6.80;;;17.70;99.90;;;;;;5040668;28;20040;-79
2022/08/12 04:04:46;;;;;;;14.82;6.82;;;17.70;99.90;;;;;;5037507;28;20037;-76
2022/08/12 04:07:15;;;;;;;10.93;6.85;;;17.60;99.90;;;;;;5042074;28;20033;-76
2022/08/12 04:09:43;;;;;;;8.30;6.38;;;17.60;99.90;;;;;;5034620;28;20034;-76
2022/08/12 04:14:58;;;;;;;11.13;6.25;;;17.60;99.90;;;;;;5031814;28;20539;-76
2022/08/12 04:17:26;;;;;;;11.07;6.57;;;17.60;99.90;;;;;;5030896;28;20477;-76
2022/08/12 04:19:54;;;;;;;8.73;6.25;;;17.50;99.90;;;;;;5033044;28;20523;-76
2022/08/12 04:22:21;;;;;;;6.95;6.25;;;17.50;99.90;;;;;;5040495;28;20128;-76
2022/08/12 04:24:47;;;;;;;7.00;6.13;;;17.50;99.90;;;;;;5040456;28;20045;-76
2022/08/12 04:27:12;;;;;;;8.93;6.68;;;17.50;99.90;;;;;;5033459;28;20107;-77
2022/08/12 04:29:39;;;;;;;8.40;6.03;;;17.50;99.90;;;;;;5037511;28;20046;-77
2022/08/12 04:32:06;;;;;;;8.23;6.07;;;17.50;99.90;;;;;;5037926;28;20083;-76
2022/08/12 04:34:32;;;;;;;8.32;6.38;;;17.50;99.90;;;;;;5038353;28;20056;-77
2022/08/12 04:36:57;;;;;;;7.78;5.97;;;17.50;99.90;;;;;;5043305;28;20064;-78
2022/08/12 04:39:25;;;;;;;9.23;6.53;;;17.50;99.90;;;;;;5044314;28;20056;-76
2022/08/12 04:41:51;;;;;;;8.35;6.20;;;17.40;99.90;;;;;;5036948;28;20044;-76
2022/08/12 04:44:18;;;;;;;8.00;6.35;;;17.60;99.90;;;;;;5037417;28;20120;-76
2022/08/12 04:46:43;;;;;;;8.27;5.93;;;17.60;99.90;;;;;;5047278;28;20072;-76
2022/08/12 04:49:09;;;;;;;8.15;6.13;;;17.60;99.90;;;;;;5036615;28;20068;-76
2022/08/12 04:51:35;;;;;;;11.85;6.78;;;17.60;99.90;;;;;;5037464;28;20030;-77
2022/08/12 04:54:04;;;;;;;8.57;6.05;;;17.60;99.90;;;;;;5038077;28;20037;-76
2022/08/12 04:56:30;;;;;;;10.40;6.03;;;17.70;99.90;;;;;;5048531;28;20162;-76
2022/08/12 04:58:57;;;;;;;7.80;6.03;;;17.80;99.90;;;;;;5038180;28;20044;-78
2022/08/12 05:01:29;;;;;;;7.43;5.88;;;17.80;99.90;;;;;;5048222;28;20060;-77
2022/08/12 05:03:56;;;;;;;7.60;5.60;;;17.90;99.90;;;;;;5043612;28;20112;-77
2022/08/12 05:06:22;;;;;;;17.80;6.10;;;18.00;99.90;;;;;;5041531;28;20069;-77
2022/08/12 05:08:48;;;;;;;10.77;6.07;;;18.00;99.90;;;;;;5032479;28;20068;-76
2022/08/12 05:11:15;;;;;;;10.73;6.00;;;18.10;99.90;;;;;;5041222;28;20045;-76
2022/08/12 05:13:40;;;;;;;14.75;6.25;;;18.20;99.90;;;;;;5037387;28;20045;-79
2022/08/12 05:16:07;;;;;;;13.95;6.13;;;18.30;99.90;;;;;;5033014;28;20411;-77
2022/08/12 05:18:34;;;;;;;14.32;6.10;;;18.40;99.90;;;;;;5043854;28;20119;-76
2022/08/12 05:21:00;;;;;;;9.38;6.00;;;18.50;99.90;;;;;;5039977;28;20042;-77
2022/08/12 05:23:27;;;;;;;7.32;5.90;;;18.60;99.90;;;;;;5039980;28;20034;-77
2022/08/12 05:25:55;;;;;;;7.85;5.40;;;18.70;99.90;;;;;;5046677;28;20411;-76
2022/08/12 05:28:22;;;;;;;8.77;5.63;;;18.80;99.90;;;;;;5035382;28;20069;-77
2022/08/12 05:30:48;;;;;;;8.15;5.07;;;18.90;99.90;;;;;;5032486;28;20049;-76
2022/08/12 05:33:14;;;;;;;9.43;5.10;;;19.10;99.90;;;;;;5046226;28;20056;-76
2022/08/12 05:35:41;;;;;;;6.25;5.10;;;19.20;99.90;;;;;;5033183;28;20496;-76
2022/08/12 05:41:02;;;;;;;8.75;4.95;;;19.50;99.90;;;;;;5036930;28;20084;-78
2022/08/12 05:43:27;;;;;;;10.95;4.75;;;19.60;99.90;;;;;;5031892;28;20082;-76
2022/08/12 05:45:53;;;;;;;10.55;4.80;;;19.70;99.90;;;;;;5030676;28;20079;-76
2022/08/12 05:48:20;;;;;;;5.38;4.40;;;19.80;99.90;;;;;;5040119;28;20122;-77
2022/08/12 05:50:47;;;;;;;6.88;4.65;;;19.80;99.90;;;;;;5034925;28;20037;-77
2022/08/12 05:53:13;;;;;;;9.98;4.85;;;19.90;99.90;;;;;;5027960;28;20344;-76
2022/08/12 05:55:39;;;;;;;7.72;4.82;;;20.00;99.90;;;;;;5032378;28;20525;-76
2022/08/12 05:58:06;;;;;;;5.70;4.55;;;20.10;99.90;;;;;;5034994;28;20029;-77
2022/08/12 06:00:34;;;;;;;10.80;4.70;;;20.20;99.90;;;;;;5042089;28;20042;-76
2022/08/12 06:03:04;;;;;;;6.80;4.13;;;20.20;99.90;;;;;;5042213;28;20095;-76
2022/08/12 06:05:35;;;;;;;8.43;4.78;;;20.30;99.90;;;;;;5040990;28;20030;-76
2022/08/12 06:08:05;;;;;;;9.80;4.35;;;20.40;99.90;;;;;;5032064;28;20403;-77
2022/08/12 06:10:35;;;;;;;8.10;4.45;;;20.50;99.90;;;;;;5022502;28;20140;-77
2022/08/12 06:13:02;;;;;;;5.72;4.53;;;20.60;99.90;;;;;;5039039;28;20040;-77
2022/08/12 06:15:28;;;;;;;10.32;4.78;;;20.70;99.90;;;;;;5045430;28;20090;-77
2022/08/12 06:18:04;;;;;;;6.78;4.45;;;20.80;99.90;;;;;;5038069;28;20033;-77
2022/08/12 06:20:29;;;;;;;7.10;4.68;;;20.90;99.90;;;;;;5042855;28;20037;-77
2022/08/12 06:22:55;;;;;;;6.10;4.70;;;21.00;99.90;;;;;;5040743;28;20502;-76
2022/08/12 06:25:21;;;;;;;6.88;4.53;;;21.10;99.90;;;;;;5033640;28;20521;-78
2022/08/12 06:27:48;;;;;;;5.85;4.05;;;21.20;99.90;;;;;;5034462;28;20124;-76
2022/08/12 06:30:15;;;;;;;5.85;4.25;;;21.40;99.90;;;;;;5046961;28;20076;-76
2022/08/12 06:32:43;;;;;;;5.10;4.10;;;21.40;99.90;;;;;;5029884;28;20045;-76
2022/08/12 06:35:10;;;;;;;8.15;4.15;;;21.60;99.90;;;;;;5030627;28;20033;-78
2022/08/12 06:37:41;;;;;;;10.73;3.92;;;21.60;99.90;;;;;;5034091;28;20034;-77
2022/08/12 06:40:09;;;;;;;6.28;3.63;;;21.80;99.90;;;;;;5031695;28;20046;-77
2022/08/12 06:42:46;;;;;;;7.75;4.25;;;21.90;99.90;;;;;;5034430;28;20048;-76
2022/08/12 06:45:13;;;;;;;6.30;4.00;;;22.00;99.90;;;;;;5032540;28;20453;-78
2022/08/12 06:47:39;;;;;;;6.63;3.53;;;22.10;99.90;;;;;;5035399;28;20057;-77
2022/08/12 06:50:05;;;;;;;9.73;3.50;;;22.30;99.90;;;;;;5037099;28;20510;-77
2022/08/12 06:52:31;;;;;;;6.35;3.70;;;22.40;99.90;;;;;;5031069;28;20048;-77
2022/08/12 06:54:58;;;;;;;6.38;3.15;;;22.40;99.90;;;;;;5030644;28;20037;-77
2022/08/12 06:57:26;;;;;;;7.65;3.28;;;22.70;99.90;;;;;;5032370;28;20499;-76
2022/08/12 06:59:52;;;;;;;7.60;3.10;;;22.80;99.90;;;;;;5037556;28;20120;-76
2022/08/12 07:02:19;;;;;;;6.78;3.00;;;22.80;99.90;;;;;;5041196;28;20135;-76
2022/08/12 07:04:46;;;;;;;6.72;3.33;;;22.90;99.90;;;;;;5033491;28;20448;-76
2022/08/12 07:07:12;;;;;;;3.55;2.78;;;23.00;99.90;;;;;;5045693;28;20044;-76
2022/08/12 07:09:41;;;;;;;5.95;3.17;;;23.10;99.90;;;;;;5035615;28;20455;-76
2022/08/12 07:12:18;;;;;;;4.03;2.88;;;23.30;99.90;;;;;;5040448;28;20036;-75
2022/08/12 07:14:49;;;;;;;6.70;3.30;;;23.30;99.90;;;;;;5024539;28;20037;-75
2022/08/12 07:17:14;;;;;;;6.20;3.40;;;23.50;99.90;;;;;;5036970;28;20041;-76
2022/08/12 07:19:41;;;;;;;7.03;2.90;;;23.60;99.90;;;;;;5043216;28;20557;-76
2022/08/12 07:22:09;;;;;;;4.30;3.03;;;23.70;99.90;;;;;;5037230;28;20044;-77
2022/08/12 07:24:35;;;;;;;5.40;3.30;;;23.80;99.90;;;;;;5032395;28;20064;-75
2022/08/12 07:27:00;;;;;;;7.53;3.03;;;23.90;99.90;;;;;;5037047;28;20041;-76
2022/08/12 07:29:27;;;;;;;7.13;3.50;;;24.00;99.90;;;;;;5036327;28;20045;-76
2022/08/12 07:31:53;;;;;;;6.97;3.10;;;24.10;99.90;;;;;;5042406;28;20041;-76
2022/08/12 07:34:18;;;;;;;4.88;2.90;;;24.30;99.90;;;;;;5037904;28;20518;-76
2022/08/12 07:36:46;;;;;;;6.68;3.58;;;24.50;99.90;;;;;;5036796;28;20037;-76
2022/08/12 07:39:12;;;;;;;7.30;3.05;;;24.60;99.90;;;;;;5043570;28;20065;-77
2022/08/12 07:41:38;;;;;;;5.15;3.60;;;24.70;99.90;;;;;;5034094;28;20064;-77
2022/08/12 07:44:06;;;;;;;4.82;3.08;;;24.80;99.90;;;;;;5030397;28;20040;-77
2022/08/12 07:46:40;;;;;;;4.88;3.33;;;24.90;99.90;;;;;;5039687;28;20052;-77
2022/08/12 07:49:09;;;;;;;4.72;3.20;;;25.10;99.90;;;;;;5038478;28;20025;-76
2022/08/12 07:51:35;;;;;;;6.22;2.60;;;25.20;99.90;;;;;;5030215;28;20037;-76
2022/08/12 07:54:03;;;;;;;6.50;2.88;;;25.30;99.90;;;;;;5034727;28;20038;-77
2022/08/12 07:56:29;;;;;;;4.38;2.60;;;25.40;99.90;;;;;;5029313;28;20131;-77
2022/08/12 07:58:57;;;;;;;6.60;3.15;;;25.60;99.90;;;;;;5025882;28;20034;-76
2022/08/12 08:01:23;;;;;;;7.22;3.10;;;25.70;99.90;;;;;;5028852;28;20093;-77
2022/08/12 08:06:41;;;;;;;7.22;2.90;;;25.90;99.90;;;;;;5060719;28;20049;-77
2022/08/12 08:09:12;;;;;;;6.35;3.15;;;26.00;99.90;;;;;;5034000;28;20140;-76
2022/08/12 08:14:28;;;;;;;5.15;2.95;;;26.20;99.90;;;;;;5022030;28;20046;-76
2022/08/12 08:16:56;;;;;;;7.80;3.25;;;26.20;99.90;;;;;;5028759;28;20095;-76
2022/08/12 08:19:27;;;;;;;8.45;2.90;;;26.40;99.90;;;;;;5018004;28;20066;-76
2022/08/12 08:21:54;;;;;;;8.18;3.42;;;26.30;99.90;;;;;;5021338;28;20053;-77
2022/08/12 08:24:25;;;;;;;7.35;3.28;;;26.50;99.90;;;;;;5021024;28;20038;-75
2022/08/12 08:26:54;;;;;;;4.93;3.05;;;26.60;99.90;;;;;;5023344;28;20040;-76
2022/08/12 08:29:21;;;;;;;6.47;3.10;;;26.60;99.90;;;;;;5023004;28;20499;-76
2022/08/12 08:31:52;;;;;;;4.30;3.20;;;26.80;99.90;;;;;;5026860;28;20043;-76
2022/08/12 08:34:20;;;;;;;4.65;3.20;;;26.80;99.90;;;;;;5018703;28;20030;-75
2022/08/12 08:36:45;;;;;;;7.75;3.80;;;26.90;99.90;;;;;;5027830;28;20040;-77
2022/08/12 08:39:13;;;;;;;5.20;3.20;;;27.00;99.70;;;;;;5030950;28;20041;-76
2022/08/12 08:44:23;;;;;;;5.88;3.13;;;27.00;99.10;;;;;;5028255;28;20049;-75
2022/08/12 08:46:49;;;;;;;5.38;2.80;;;27.10;99.00;;;;;;5035347;28;20067;-76
2022/08/12 08:49:16;;;;;;;5.25;2.90;;;27.20;98.70;;;;;;5035769;28;20116;-76
2022/08/12 08:51:43;;;;;;;4.53;2.78;;;27.20;98.50;;;;;;5031124;28;20033;-77
2022/08/12 08:54:11;;;;;;;5.45;3.25;;;27.30;98.00;;;;;;5031558;28;20040;-75
2022/08/12 08:56:48;;;;;;;5.30;2.97;;;27.30;98.00;;;;;;5034340;28;20037;-76
2022/08/12 08:59:15;;;;;;;6.28;2.90;;;27.30;97.90;;;;;;5037367;28;20046;-77
2022/08/12 09:01:42;;;;;;;7.75;3.10;;;27.40;97.80;;;;;;5035892;28;20028;-75
2022/08/12 09:04:11;;;;;;;6.20;2.90;;;27.40;97.50;;;;;;5042016;28;20033;-77
2022/08/12 09:06:38;;;;;;;8.15;3.15;;;27.40;97.30;;;;;;5044338;28;20041;-76
2022/08/12 09:09:05;;;;;;;8.15;3.25;;;27.40;97.10;;;;;;5045956;28;20505;-75
2022/08/12 09:14:16;;;;;;;4.97;2.67;;;27.40;97.00;;;;;;5029617;28;20040;-75
2022/08/12 09:16:41;;;;;;;7.43;2.80;;;27.40;97.00;;;;;;5023001;28;20029;-76
2022/08/12 09:19:09;;;;;;;3.72;2.50;;;27.40;97.00;;;;;;5022182;28;20049;-77
2022/08/12 09:21:35;;;;;;;6.30;2.90;;;27.40;96.70;;;;;;5023339;28;20044;-76
2022/08/12 09:24:01;;;;;;;9.20;2.63;;;27.40;96.40;;;;;;5024174;28;20060;-76
2022/08/12 09:26:27;;;;;;;11.07;2.45;;;27.40;96.60;;;;;;5023083;28;20057;-77
2022/08/12 09:28:53;;;;;;;6.18;2.35;;;27.40;96.70;;;;;;5028668;28;20033;-77
2022/08/12 09:31:20;;;;;;;5.03;2.47;;;27.40;96.80;;;;;;5036105;28;20129;-78
2022/08/12 09:33:46;;;;;;;8.40;2.50;;;27.50;96.60;;;;;;5024349;28;20029;-79
2022/08/12 09:36:13;;;;;;;3.35;2.33;;;27.50;96.40;;;;;;5034639;28;20140;-77
2022/08/12 09:38:39;;;;;;;3.15;2.13;;;27.50;96.10;;;;;;5034796;28;20110;-76
2022/08/12 09:41:05;;;;;;;6.68;2.30;;;27.50;95.90;;;;;;5038648;28;20041;-77
2022/08/12 09:46:16;;;;;;;3.03;2.13;;;27.60;95.30;;;;;;5024468;28;20052;-79
2022/08/12 09:48:43;;;;;;;6.05;2.58;;;27.70;95.30;;;;;;5020176;28;20077;-76
2022/08/12 09:51:11;;;;;;;7.70;2.55;;;27.70;95.50;;;;;;5034710;28;20041;-76
2022/08/12 09:53:38;;;;;;;6.93;2.47;;;27.70;95.30;;;;;;5034256;28;20101;-77
2022/08/12 09:56:05;;;;;;;5.40;2.60;;;27.80;95.30;;;;;;5030646;28;20037;-77
2022/08/12 09:58:31;;;;;;;7.60;2.67;;;27.90;94.80;;;;;;5036944;28;20033;-75
2022/08/12 10:01:03;;;;;;;6.38;2.90;;;28.00;94.60;;;;;;5028191;28;20376;-77
2022/08/12 10:03:35;;;;;;;4.50;2.70;;;28.10;93.10;;;;;;5032743;28;20040;-76
2022/08/12 10:06:04;;;;;;;5.10;3.00;;;28.20;94.30;;;;;;5031048;28;20045;-76
2022/08/12 10:08:30;;;;;;;6.32;2.90;;;28.20;94.10;;;;;;5043072;28;20399;-76
2022/08/12 10:13:43;;;;;;;6.10;2.60;;;28.40;94.00;;;;;;5031775;28;20136;-77
2022/08/12 10:16:21;;;;;;;4.40;2.42;;;28.40;93.70;;;;;;5028248;28;20060;-76
2022/08/12 10:19:00;;;;;;;3.92;2.38;;;28.40;93.30;;;;;;5029065;28;20048;-77
2022/08/12 10:21:35;;;;;;;6.35;2.40;;;28.50;93.20;;;;;;5017397;28;20534;-76
2022/08/12 10:24:06;;;;;;;6.63;2.50;;;28.50;93.00;;;;;;5015018;28;20527;-76
2022/08/12 10:29:35;;;;;;;5.72;2.20;;;28.70;92.90;;;;;;5015935;28;20128;-75
2022/08/12 10:32:02;;;;;;;8.38;2.50;;;28.80;92.20;;;;;;5019818;28;20095;-76
2022/08/12 10:34:28;;;;;;;6.05;2.10;;;28.90;91.70;;;;;;5022567;28;20056;-76
2022/08/12 10:36:57;;;;;;;6.90;2.30;;;28.90;91.50;;;;;;5019539;28;20076;-76
2022/08/12 10:39:25;;;;;;;6.97;2.25;;;29.00;91.20;;;;;;5038062;28;20038;-76
2022/08/12 10:44:35;;;;;;;7.47;2.03;;;29.10;91.10;;;;;;5016289;28;20038;-75
2022/08/12 10:47:03;;;;;;;5.55;2.03;;;29.30;91.20;;;;;;5031297;28;20029;-74
2022/08/12 10:49:33;;;;;;;5.45;2.10;;;29.40;90.20;;;;;;5035338;28;20095;-74
2022/08/12 10:52:01;;;;;;;4.63;2.10;;;29.50;90.60;;;;;;5040076;28;20113;-74
2022/08/12 10:54:27;;;;;;;6.60;2.20;;;29.60;90.20;;;;;;5031539;28;20062;-75
2022/08/12 10:56:56;;;;;;;5.38;2.35;;;29.70;90.00;;;;;;5037431;28;20025;-75
2022/08/12 10:59:23;;;;;;;5.22;2.25;;;29.80;90.20;;;;;;5039751;28;20070;-75
2022/08/12 11:01:51;;;;;;;5.93;2.30;;;29.90;90.30;;;;;;5041243;28;20112;-75
2022/08/12 11:04:17;;;;;;;4.60;2.00;;;30.00;89.00;;;;;;5024723;28;20030;-75
2022/08/12 11:06:49;;;;;;;8.48;2.40;;;30.10;87.40;;;;;;5040819;28;20168;-76
2022/08/12 11:09:31;;;;;;;5.82;2.15;;;30.20;86.40;;;;;;5027053;28;20046;-75
2022/08/12 11:11:59;;;;;;;5.68;1.92;;;30.30;85.40;;;;;;5037725;28;20036;-75
2022/08/12 11:14:30;;;;;;;6.47;2.30;;;30.40;85.30;;;;;;5036746;28;20045;-75
2022/08/12 11:16:56;;;;;;;3.78;2.33;;;30.50;85.30;;;;;;5026991;28;20037;-76
2022/08/12 11:19:34;;;;;;;8.48;2.45;;;30.60;85.30;;;;;;5033389;28;20060;-76
2022/08/12 11:22:00;;;;;;;5.45;2.10;;;30.70;85.40;;;;;;5008689;28;20072;-76
2022/08/12 11:24:26;;;;;;;2.88;2.03;;;30.90;84.10;;;;;;5031694;28;20088;-77
2022/08/12 11:26:53;;;;;;;3.95;2.00;;;31.00;83.20;;;;;;5036203;28;20392;-77
2022/08/12 11:29:23;;;;;;;4.55;2.00;;;31.10;82.90;;;;;;5029367;28;20203;-75
2022/08/12 11:31:49;;;;;;;4.82;1.90;;;31.20;82.90;;;;;;5028911;28;20040;-76
2022/08/12 11:34:16;;;;;;;5.43;2.20;;;31.20;81.60;;;;;;5018794;28;20065;-76
2022/08/12 11:36:50;;;;;;;6.13;2.03;;;31.40;81.90;;;;;;5024117;28;20037;-77
2022/08/12 11:39:17;;;;;;;3.83;2.13;;;31.50;81.50;;;;;;5022297;28;20041;-77
2022/08/12 11:41:43;;;;;;;3.08;1.70;;;31.70;81.30;;;;;;5009843;28;20033;-78
2022/08/12 11:44:08;;;;;;;13.13;2.22;;;31.80;80.10;;;;;;5027955;28;20194;-76
2022/08/12 11:46:36;;;;;;;2.33;1.70;;;32.00;79.80;;;;;;5018977;28;20036;-76
2022/08/12 11:49:02;;;;;;;5.72;2.00;;;32.10;78.90;;;;;;5033419;28;20519;-77
2022/08/12 11:51:28;;;;;;;3.20;1.90;;;32.30;79.10;;;;;;5029914;28;20038;-76
2022/08/12 11:53:54;;;;;;;4.32;1.70;;;32.50;78.60;;;;;;5016713;28;20099;-77
2022/08/12 11:56:19;;;;;;;3.55;1.70;;;32.60;78.00;;;;;;5032103;28;20065;-76
2022/08/12 11:58:45;;;;;;;3.05;1.70;;;32.80;77.00;;;;;;5039969;28;20041;-77
2022/08/12 12:01:10;;;;;;;3.10;1.50;;;32.80;76.50;;;;;;5038303;28;20128;-77
2022/08/12 12:03:36;;;;;;;4.07;1.60;;;33.00;75.90;;;;;;5031851;28;20052;-77
2022/08/12 12:06:02;;;;;;;4.78;2.03;;;33.00;76.00;;;;;;5033463;28;20037;-77
2022/08/12 12:08:29;;;;;;;2.97;1.83;;;33.10;76.10;;;;;;5019932;28;20042;-77
2022/08/12 12:10:55;;;;;;;5.45;2.00;;;33.20;75.90;;;;;;5032612;28;20040;-77
2022/08/12 12:13:20;;;;;;;4.28;2.10;;;33.20;75.80;;;;;;5032176;28;20034;-76
2022/08/12 12:15:46;;;;;;;3.92;2.00;;;33.30;75.70;;;;;;5032686;28;20116;-77
2022/08/12 12:18:23;;;;;;;2.85;1.77;;;33.40;75.20;;;;;;5033042;28;20038;-77
2022/08/12 12:20:50;;;;;;;3.10;1.77;;;33.60;75.20;;;;;;5018066;28;20048;-76
2022/08/12 12:23:15;;;;;;;6.80;1.88;;;33.60;75.00;;;;;;5033054;28;20053;-76
2022/08/12 12:25:41;;;;;;;4.40;1.65;;;33.90;75.10;;;;;;5024508;28;20056;-77
2022/08/12 12:28:06;;;;;;;3.13;1.73;;;33.90;74.60;;;;;;5034499;28;20103;-77
2022/08/12 12:30:33;;;;;;;3.92;1.70;;;34.00;74.50;;;;;;5033401;28;20041;-77
2022/08/12 12:32:59;;;;;;;4.13;1.80;;;34.10;74.40;;;;;;5031043;28;20029;-77
2022/08/12 12:35:25;;;;;;;3.35;1.90;;;34.20;73.60;;;;;;5027376;28;20033;-78
2022/08/12 12:37:56;;;;;;;3.88;1.42;;;34.30;73.10;;;;;;5024328;28;20040;-77
2022/08/12 12:40:22;;;;;;;4.75;1.90;;;34.40;73.00;;;;;;5029625;28;20117;-78
2022/08/12 12:42:48;;;;;;;3.95;1.80;;;34.30;72.10;;;;;;5027713;28;20030;-77
2022/08/12 12:45:15;;;;;;;6.15;1.80;;;34.30;71.90;;;;;;5027206;28;20661;-73
2022/08/12 12:47:56;;;;;;;4.05;2.10;;;34.40;71.30;;;;;;5019997;28;20100;-78
2022/08/12 12:50:28;;;;;;;5.97;2.08;;;34.50;72.20;;;;;;5013201;28;20037;-79
2022/08/12 12:52:54;;;;;;;4.47;1.60;;;34.60;71.50;;;;;;5016904;28;20141;-75
2022/08/12 12:55:21;;;;;;;2.63;1.52;;;34.50;71.20;;;;;;5033569;28;20052;-77
2022/08/12 12:57:47;;;;;;;4.40;1.58;;;34.60;71.20;;;;;;5021727;28;20041;-77
2022/08/12 13:00:14;;;;;;;3.92;1.58;;;34.70;71.60;;;;;;5037662;28;20045;-77
2022/08/12 13:02:51;;;;;;;6.20;1.80;;;34.70;70.40;;;;;;5032507;28;20053;-74
2022/08/12 13:05:28;;;;;;;3.22;1.83;;;34.90;70.30;;;;;;5030396;28;20041;-78
2022/08/12 13:07:59;;;;;;;4.22;1.50;;;34.90;70.50;;;;;;5028583;28;20052;-76
2022/08/12 13:10:26;;;;;;;3.15;1.58;;;34.90;67.60;;;;;;5034843;28;20029;-76
2022/08/12 13:12:52;;;;;;;3.35;1.60;;;34.90;69.20;;;;;;5039827;28;20033;-77
2022/08/12 13:15:18;;;;;;;4.78;1.70;;;35.00;68.70;;;;;;5026575;28;20658;-77
2022/08/12 13:17:48;;;;;;;3.03;1.58;;;35.10;68.60;;;;;;5042136;28;20028;-79
2022/08/12 13:20:19;;;;;;;3.85;1.60;;;35.20;69.00;;;;;;5034596;28;20037;-77
2022/08/12 13:22:45;;;;;;;4.65;2.85;;;35.30;67.40;;;;;;5033658;28;20068;-74
2022/08/12 13:25:14;;;;;;;4.47;1.83;;;35.30;67.70;;;;;;5035210;28;20060;-79
2022/08/12 13:27:46;;;;;;;3.88;1.77;;;35.30;67.50;;;;;;5018789;28;20044;-77
2022/08/12 13:30:20;;;;;;;3.45;1.33;;;35.20;65.60;;;;;;5036159;28;20422;-76
2022/08/12 13:32:54;;;;;;;2.88;1.40;;;35.30;66.40;;;;;;5040228;28;20033;-77
2022/08/12 13:35:20;;;;;;;2.55;1.60;;;35.50;67.00;;;;;;5044797;28;20402;-77
2022/08/12 13:37:53;;;;;;;3.83;1.38;;;35.50;66.50;;;;;;5046915;28;20036;-77
2022/08/12 13:40:26;;;;;;;5.30;1.35;;;35.70;66.10;;;;;;5046862;28;20094;-78
2022/08/12 13:42:56;;;;;;;3.28;1.33;;;35.70;66.50;;;;;;5044721;28;20044;-79
2022/08/12 13:45:23;;;;;;;7.18;1.50;;;35.80;65.80;;;;;;5024545;28;20041;-78
2022/08/12 13:47:57;;;;;;;3.70;1.30;;;35.90;66.00;;;;;;5051245;28;20060;-80
2022/08/12 13:50:35;;;;;;;5.63;1.48;;;36.00;65.80;;;;;;5048128;28;20037;-79
2022/08/12 13:53:08;;;;;;;6.68;1.42;;;35.90;63.60;;;;;;5046138;28;20071;-79
2022/08/12 13:55:35;;;;;;;4.75;1.45;;;36.00;64.20;;;;;;5043901;28;20487;-79
2022/08/12 13:58:04;;;;;;;3.15;1.30;;;36.00;65.20;;;;;;5033115;28;20110;-79
2022/08/12 14:00:34;;;;;;;6.55;1.30;;;35.90;64.40;;;;;;5034034;28;20037;-80
2022/08/12 14:03:01;;;;;;;2.55;1.20;;;36.20;65.10;;;;;;5035431;28;20124;-79
2022/08/12 14:05:27;;;;;;;2.45;1.30;;;36.10;64.10;;;;;;5034902;28;20099;-80
2022/08/12 14:08:00;;;;;;;5.13;1.20;;;36.20;64.10;;;;;;5035159;28;20043;-79
2022/08/12 14:10:35;;;;;;;3.90;1.35;;;36.20;65.00;;;;;;5035798;28;20040;-80
2022/08/12 14:13:11;;;;;;;2.13;1.40;;;36.30;63.80;;;;;;5034804;28;20033;-80
2022/08/12 14:15:51;;;;;;;3.47;1.50;;;36.30;63.50;;;;;;5034092;28;20116;-78
2022/08/12 14:18:19;;;;;;;5.03;1.33;;;36.40;64.20;;;;;;5066112;28;20038;-78
2022/08/12 14:20:53;;;;;;;4.38;1.40;;;36.50;64.20;;;;;;5022457;28;20074;-80
2022/08/12 14:23:19;;;;;;;4.10;1.40;;;36.60;63.50;;;;;;5033654;28;20435;-80
2022/08/12 14:25:46;;;;;;;2.67;1.60;;;36.60;64.10;;;;;;5036579;28;20061;-79
2022/08/12 14:28:17;;;;;;;2.88;1.20;;;36.70;63.80;;;;;;5049179;28;20094;-80
2022/08/12 14:30:50;;;;;;;4.18;1.40;;;36.80;63.70;;;;;;5025048;28;20474;-81
2022/08/12 14:33:16;;;;;;;4.38;1.40;;;36.90;63.30;;;;;;5041569;28;20574;-81
2022/08/12 14:35:42;;;;;;;4.20;1.50;;;37.00;63.10;;;;;;5034319;28;20033;-80
2022/08/12 14:38:19;;;;;;;3.65;1.30;;;37.00;63.10;;;;;;5033982;28;20088;-81
2022/08/12 14:40:47;;;;;;;3.33;1.20;;;37.10;62.50;;;;;;5056028;28;20049;-79